sensor_id;sensor_type;location;lat;lon;timestamp;P1;durP1;ratioP1;P2;durP2;ratioP2
33104;SDS011;19476;51.448;6.674;2022-08-18T00:01:47;18.77;;;15.05;;
33104;SDS011;19476;51.448;6.674;2022-08-18T00:04:30;20.38;;;17.00;;
33104;SDS011;19476;51.448;6.674;2022-08-18T00:06:57;20.60;;;16.67;;
33104;SDS011;19476;51.448;6.674;2022-08-18T00:09:23;19.85;;;16.30;;
33104;SDS011;19476;51.448;6.674;2022-08-18T00:11:49;22.17;;;16.42;;
33104;SDS011;19476;51.448;6.674;2022-08-18T00:14:17;16.58;;;14.07;;
33104;SDS011;19476;51.448;6.674;2022-08-18T00:16:45;20.15;;;16.75;;
33104;SDS011;19476;51.448;6.674;2022-08-18T00:19:11;20.35;;;15.32;;
33104;SDS011;19476;51.448;6.674;2022-08-18T00:21:37;19.92;;;15.43;;
33104;SDS011;19476;51.448;6.674;2022-08-18T00:24:03;20.35;;;15.98;;
33104;SDS011;19476;51.448;6.674;2022-08-18T00:26:29;20.23;;;16.25;;
33104;SDS011;19476;51.448;6.674;2022-08-18T00:28:55;22.38;;;16.75;;
33104;SDS011;19476;51.448;6.674;2022-08-18T00:31:21;21.00;;;16.30;;
33104;SDS011;19476;51.448;6.674;2022-08-18T00:33:46;22.65;;;17.83;;
33104;SDS011;19476;51.448;6.674;2022-08-18T00:36:12;18.75;;;15.95;;
33104;SDS011;19476;51.448;6.674;2022-08-18T00:38:38;22.73;;;15.68;;
33104;SDS011;19476;51.448;6.674;2022-08-18T00:41:05;21.55;;;16.95;;
33104;SDS011;19476;51.448;6.674;2022-08-18T00:43:45;22.27;;;16.63;;
33104;SDS011;19476;51.448;6.674;2022-08-18T00:46:18;22.80;;;17.80;;
33104;SDS011;19476;51.448;6.674;2022-08-18T00:48:48;21.63;;;17.35;;
33104;SDS011;19476;51.448;6.674;2022-08-18T00:51:17;22.40;;;17.77;;
33104;SDS011;19476;51.448;6.674;2022-08-18T00:53:55;18.48;;;15.15;;
33104;SDS011;19476;51.448;6.674;2022-08-18T00:56:42;21.05;;;16.40;;
33104;SDS011;19476;51.448;6.674;2022-08-18T00:59:19;21.10;;;17.30;;
33104;SDS011;19476;51.448;6.674;2022-08-18T01:01:56;21.63;;;17.30;;
33104;SDS011;19476;51.448;6.674;2022-08-18T01:04:36;23.90;;;17.70;;
33104;SDS011;19476;51.448;6.674;2022-08-18T01:07:13;23.77;;;18.05;;
33104;SDS011;19476;51.448;6.674;2022-08-18T01:09:45;20.15;;;15.48;;
33104;SDS011;19476;51.448;6.674;2022-08-18T01:12:16;22.10;;;17.23;;
33104;SDS011;19476;51.448;6.674;2022-08-18T01:14:42;21.42;;;17.42;;
33104;SDS011;19476;51.448;6.674;2022-08-18T01:17:09;20.13;;;15.48;;
33104;SDS011;19476;51.448;6.674;2022-08-18T01:19:54;21.35;;;15.90;;
33104;SDS011;19476;51.448;6.674;2022-08-18T01:25:12;23.33;;;17.58;;
33104;SDS011;19476;51.448;6.674;2022-08-18T01:27:57;20.80;;;15.90;;
33104;SDS011;19476;51.448;6.674;2022-08-18T01:30:28;24.60;;;17.92;;
33104;SDS011;19476;51.448;6.674;2022-08-18T01:32:54;26.80;;;19.63;;
33104;SDS011;19476;51.448;6.674;2022-08-18T01:35:23;26.98;;;19.90;;
33104;SDS011;19476;51.448;6.674;2022-08-18T01:37:53;22.42;;;17.27;;
33104;SDS011;19476;51.448;6.674;2022-08-18T01:40:21;23.45;;;17.13;;
33104;SDS011;19476;51.448;6.674;2022-08-18T01:42:48;24.95;;;18.50;;
33104;SDS011;19476;51.448;6.674;2022-08-18T01:45:14;24.73;;;18.20;;
33104;SDS011;19476;51.448;6.674;2022-08-18T01:47:42;25.42;;;18.45;;
33104;SDS011;19476;51.448;6.674;2022-08-18T01:50:10;29.08;;;21.30;;
33104;SDS011;19476;51.448;6.674;2022-08-18T01:52:37;24.63;;;18.63;;
33104;SDS011;19476;51.448;6.674;2022-08-18T01:55:04;23.40;;;17.15;;
33104;SDS011;19476;51.448;6.674;2022-08-18T01:57:32;26.85;;;18.80;;
33104;SDS011;19476;51.448;6.674;2022-08-18T02:00:07;27.17;;;19.83;;
33104;SDS011;19476;51.448;6.674;2022-08-18T02:02:34;23.52;;;16.40;;
33104;SDS011;19476;51.448;6.674;2022-08-18T02:05:08;29.50;;;20.38;;
33104;SDS011;19476;51.448;6.674;2022-08-18T02:07:37;25.58;;;18.42;;
33104;SDS011;19476;51.448;6.674;2022-08-18T02:10:07;27.15;;;18.23;;
33104;SDS011;19476;51.448;6.674;2022-08-18T02:12:35;25.77;;;18.85;;
33104;SDS011;19476;51.448;6.674;2022-08-18T02:15:02;25.23;;;18.45;;
33104;SDS011;19476;51.448;6.674;2022-08-18T02:17:28;26.02;;;18.40;;
33104;SDS011;19476;51.448;6.674;2022-08-18T02:20:00;24.75;;;17.85;;
33104;SDS011;19476;51.448;6.674;2022-08-18T02:22:26;24.42;;;17.70;;
33104;SDS011;19476;51.448;6.674;2022-08-18T02:24:52;24.73;;;17.35;;
33104;SDS011;19476;51.448;6.674;2022-08-18T02:27:21;24.75;;;18.10;;
33104;SDS011;19476;51.448;6.674;2022-08-18T02:29:47;29.85;;;20.55;;
33104;SDS011;19476;51.448;6.674;2022-08-18T02:32:13;24.08;;;16.75;;
33104;SDS011;19476;51.448;6.674;2022-08-18T02:34:39;26.73;;;18.33;;
33104;SDS011;19476;51.448;6.674;2022-08-18T02:37:06;28.10;;;19.30;;
33104;SDS011;19476;51.448;6.674;2022-08-18T02:39:34;28.02;;;19.23;;
33104;SDS011;19476;51.448;6.674;2022-08-18T02:42:02;21.25;;;15.82;;
33104;SDS011;19476;51.448;6.674;2022-08-18T02:44:29;22.17;;;16.05;;
33104;SDS011;19476;51.448;6.674;2022-08-18T02:46:56;31.17;;;21.58;;
33104;SDS011;19476;51.448;6.674;2022-08-18T02:49:22;26.55;;;18.10;;
33104;SDS011;19476;51.448;6.674;2022-08-18T02:51:50;23.17;;;16.90;;
33104;SDS011;19476;51.448;6.674;2022-08-18T02:54:17;21.23;;;15.52;;
33104;SDS011;19476;51.448;6.674;2022-08-18T02:56:44;29.85;;;19.65;;
33104;SDS011;19476;51.448;6.674;2022-08-18T02:59:15;25.75;;;18.60;;
33104;SDS011;19476;51.448;6.674;2022-08-18T03:01:45;28.00;;;19.15;;
33104;SDS011;19476;51.448;6.674;2022-08-18T03:04:14;28.80;;;19.27;;
33104;SDS011;19476;51.448;6.674;2022-08-18T03:06:41;29.03;;;18.87;;
33104;SDS011;19476;51.448;6.674;2022-08-18T03:09:08;24.73;;;17.50;;
33104;SDS011;19476;51.448;6.674;2022-08-18T03:11:35;25.75;;;17.50;;
33104;SDS011;19476;51.448;6.674;2022-08-18T03:14:02;23.38;;;16.42;;
33104;SDS011;19476;51.448;6.674;2022-08-18T03:16:29;24.58;;;17.02;;
33104;SDS011;19476;51.448;6.674;2022-08-18T03:18:57;22.45;;;16.02;;
33104;SDS011;19476;51.448;6.674;2022-08-18T03:21:24;25.25;;;17.27;;
33104;SDS011;19476;51.448;6.674;2022-08-18T03:23:52;24.00;;;16.90;;
33104;SDS011;19476;51.448;6.674;2022-08-18T03:26:21;25.27;;;16.98;;
33104;SDS011;19476;51.448;6.674;2022-08-18T03:28:49;24.05;;;16.27;;
33104;SDS011;19476;51.448;6.674;2022-08-18T03:31:16;25.17;;;17.73;;
33104;SDS011;19476;51.448;6.674;2022-08-18T03:33:44;26.02;;;16.50;;
33104;SDS011;19476;51.448;6.674;2022-08-18T03:36:12;21.38;;;15.32;;
33104;SDS011;19476;51.448;6.674;2022-08-18T03:38:41;22.52;;;15.18;;
33104;SDS011;19476;51.448;6.674;2022-08-18T03:41:09;22.25;;;15.13;;
33104;SDS011;19476;51.448;6.674;2022-08-18T03:43:37;23.23;;;15.88;;
33104;SDS011;19476;51.448;6.674;2022-08-18T03:46:04;22.45;;;15.13;;
33104;SDS011;19476;51.448;6.674;2022-08-18T03:48:31;25.63;;;16.73;;
33104;SDS011;19476;51.448;6.674;2022-08-18T03:51:13;22.33;;;14.75;;
33104;SDS011;19476;51.448;6.674;2022-08-18T03:53:41;19.67;;;13.80;;
33104;SDS011;19476;51.448;6.674;2022-08-18T03:56:11;24.98;;;16.67;;
33104;SDS011;19476;51.448;6.674;2022-08-18T03:58:44;24.08;;;16.63;;
33104;SDS011;19476;51.448;6.674;2022-08-18T04:01:14;23.65;;;15.02;;
33104;SDS011;19476;51.448;6.674;2022-08-18T04:03:42;23.13;;;15.90;;
33104;SDS011;19476;51.448;6.674;2022-08-18T04:06:15;24.35;;;16.70;;
33104;SDS011;19476;51.448;6.674;2022-08-18T04:08:42;22.70;;;15.13;;
33104;SDS011;19476;51.448;6.674;2022-08-18T04:11:09;26.45;;;18.48;;
33104;SDS011;19476;51.448;6.674;2022-08-18T04:13:37;23.40;;;16.35;;
33104;SDS011;19476;51.448;6.674;2022-08-18T04:16:04;23.40;;;16.27;;
33104;SDS011;19476;51.448;6.674;2022-08-18T04:18:30;23.70;;;15.65;;
33104;SDS011;19476;51.448;6.674;2022-08-18T04:20:59;23.63;;;16.00;;
33104;SDS011;19476;51.448;6.674;2022-08-18T04:23:31;24.30;;;16.92;;
33104;SDS011;19476;51.448;6.674;2022-08-18T04:26:04;25.23;;;17.67;;
33104;SDS011;19476;51.448;6.674;2022-08-18T04:28:31;22.27;;;15.50;;
33104;SDS011;19476;51.448;6.674;2022-08-18T04:30:57;22.70;;;16.88;;
33104;SDS011;19476;51.448;6.674;2022-08-18T04:33:26;24.30;;;16.67;;
33104;SDS011;19476;51.448;6.674;2022-08-18T04:35:54;24.35;;;16.73;;
33104;SDS011;19476;51.448;6.674;2022-08-18T04:38:20;25.08;;;16.50;;
33104;SDS011;19476;51.448;6.674;2022-08-18T04:40:47;22.30;;;15.13;;
33104;SDS011;19476;51.448;6.674;2022-08-18T04:43:13;25.55;;;16.58;;
33104;SDS011;19476;51.448;6.674;2022-08-18T04:45:40;24.58;;;16.73;;
33104;SDS011;19476;51.448;6.674;2022-08-18T04:48:07;23.52;;;16.58;;
33104;SDS011;19476;51.448;6.674;2022-08-18T04:50:34;22.27;;;14.77;;
33104;SDS011;19476;51.448;6.674;2022-08-18T04:53:01;22.20;;;15.10;;
33104;SDS011;19476;51.448;6.674;2022-08-18T04:55:46;23.63;;;15.52;;
33104;SDS011;19476;51.448;6.674;2022-08-18T04:58:13;21.52;;;14.55;;
33104;SDS011;19476;51.448;6.674;2022-08-18T05:00:40;22.88;;;14.60;;
33104;SDS011;19476;51.448;6.674;2022-08-18T05:03:08;21.77;;;15.50;;
33104;SDS011;19476;51.448;6.674;2022-08-18T05:05:34;23.17;;;15.85;;
33104;SDS011;19476;51.448;6.674;2022-08-18T05:08:00;25.45;;;16.27;;
33104;SDS011;19476;51.448;6.674;2022-08-18T05:10:26;28.80;;;17.88;;
33104;SDS011;19476;51.448;6.674;2022-08-18T05:12:52;25.42;;;16.98;;
33104;SDS011;19476;51.448;6.674;2022-08-18T05:15:18;22.42;;;15.27;;
33104;SDS011;19476;51.448;6.674;2022-08-18T05:17:44;22.63;;;16.08;;
33104;SDS011;19476;51.448;6.674;2022-08-18T05:20:10;28.65;;;19.85;;
33104;SDS011;19476;51.448;6.674;2022-08-18T05:22:40;24.77;;;16.17;;
33104;SDS011;19476;51.448;6.674;2022-08-18T05:25:07;25.75;;;16.67;;
33104;SDS011;19476;51.448;6.674;2022-08-18T05:27:35;22.45;;;15.45;;
33104;SDS011;19476;51.448;6.674;2022-08-18T05:30:03;25.55;;;16.73;;
33104;SDS011;19476;51.448;6.674;2022-08-18T05:32:39;23.65;;;15.30;;
33104;SDS011;19476;51.448;6.674;2022-08-18T05:35:12;25.90;;;15.88;;
33104;SDS011;19476;51.448;6.674;2022-08-18T05:40:18;23.10;;;14.05;;
33104;SDS011;19476;51.448;6.674;2022-08-18T05:45:15;23.52;;;14.10;;
33104;SDS011;19476;51.448;6.674;2022-08-18T05:47:42;23.65;;;14.90;;
33104;SDS011;19476;51.448;6.674;2022-08-18T05:50:13;23.42;;;16.20;;
33104;SDS011;19476;51.448;6.674;2022-08-18T05:52:46;25.48;;;16.80;;
33104;SDS011;19476;51.448;6.674;2022-08-18T05:55:14;24.95;;;15.90;;
33104;SDS011;19476;51.448;6.674;2022-08-18T05:58:17;24.83;;;15.80;;
33104;SDS011;19476;51.448;6.674;2022-08-18T06:00:51;24.00;;;14.07;;
33104;SDS011;19476;51.448;6.674;2022-08-18T06:03:23;23.00;;;14.75;;
33104;SDS011;19476;51.448;6.674;2022-08-18T06:08:23;24.33;;;14.70;;
33104;SDS011;19476;51.448;6.674;2022-08-18T06:10:53;22.45;;;13.90;;
33104;SDS011;19476;51.448;6.674;2022-08-18T06:13:19;20.23;;;13.93;;
33104;SDS011;19476;51.448;6.674;2022-08-18T06:16:08;25.85;;;16.33;;
33104;SDS011;19476;51.448;6.674;2022-08-18T06:24:15;25.70;;;15.98;;
33104;SDS011;19476;51.448;6.674;2022-08-18T06:41:09;22.52;;;14.65;;
33104;SDS011;19476;51.448;6.674;2022-08-18T06:43:41;24.25;;;16.45;;
33104;SDS011;19476;51.448;6.674;2022-08-18T06:46:26;23.75;;;15.75;;
33104;SDS011;19476;51.448;6.674;2022-08-18T06:52:23;25.08;;;14.85;;
33104;SDS011;19476;51.448;6.674;2022-08-18T06:55:09;20.90;;;14.73;;
33104;SDS011;19476;51.448;6.674;2022-08-18T06:57:54;23.15;;;15.73;;
33104;SDS011;19476;51.448;6.674;2022-08-18T07:00:23;18.42;;;13.32;;
33104;SDS011;19476;51.448;6.674;2022-08-18T07:05:26;21.92;;;15.23;;
33104;SDS011;19476;51.448;6.674;2022-08-18T07:08:14;19.88;;;12.57;;
33104;SDS011;19476;51.448;6.674;2022-08-18T07:11:09;16.80;;;12.02;;
33104;SDS011;19476;51.448;6.674;2022-08-18T07:13:50;14.50;;;10.27;;
33104;SDS011;19476;51.448;6.674;2022-08-18T07:16:29;13.48;;;10.05;;
33104;SDS011;19476;51.448;6.674;2022-08-18T07:19:06;14.93;;;9.55;;
33104;SDS011;19476;51.448;6.674;2022-08-18T07:21:33;14.00;;;10.05;;
33104;SDS011;19476;51.448;6.674;2022-08-18T07:24:07;12.50;;;7.95;;
33104;SDS011;19476;51.448;6.674;2022-08-18T07:29:26;12.13;;;8.77;;
33104;SDS011;19476;51.448;6.674;2022-08-18T07:31:53;12.00;;;9.45;;
33104;SDS011;19476;51.448;6.674;2022-08-18T07:34:26;10.88;;;7.53;;
33104;SDS011;19476;51.448;6.674;2022-08-18T07:37:04;14.30;;;9.60;;
33104;SDS011;19476;51.448;6.674;2022-08-18T07:39:42;12.07;;;8.45;;
33104;SDS011;19476;51.448;6.674;2022-08-18T07:42:16;11.88;;;8.43;;
33104;SDS011;19476;51.448;6.674;2022-08-18T07:45:00;12.23;;;8.43;;
33104;SDS011;19476;51.448;6.674;2022-08-18T07:47:44;11.27;;;8.10;;
33104;SDS011;19476;51.448;6.674;2022-08-18T07:50:18;11.20;;;8.55;;
33104;SDS011;19476;51.448;6.674;2022-08-18T07:55:39;10.70;;;7.50;;
33104;SDS011;19476;51.448;6.674;2022-08-18T07:58:23;10.60;;;7.45;;
33104;SDS011;19476;51.448;6.674;2022-08-18T08:00:54;10.85;;;7.53;;
33104;SDS011;19476;51.448;6.674;2022-08-18T08:06:38;11.45;;;7.38;;
33104;SDS011;19476;51.448;6.674;2022-08-18T08:11:57;11.20;;;7.95;;
33104;SDS011;19476;51.448;6.674;2022-08-18T08:25:07;8.48;;;6.43;;
33104;SDS011;19476;51.448;6.674;2022-08-18T08:30:39;9.32;;;6.65;;
33104;SDS011;19476;51.448;6.674;2022-08-18T08:36:17;9.18;;;6.78;;
33104;SDS011;19476;51.448;6.674;2022-08-18T08:38:56;10.70;;;7.18;;
33104;SDS011;19476;51.448;6.674;2022-08-18T08:41:31;9.70;;;7.30;;
33104;SDS011;19476;51.448;6.674;2022-08-18T08:44:21;12.73;;;7.72;;
33104;SDS011;19476;51.448;6.674;2022-08-18T08:49:42;10.80;;;7.07;;
33104;SDS011;19476;51.448;6.674;2022-08-18T08:52:35;9.95;;;6.72;;
33104;SDS011;19476;51.448;6.674;2022-08-18T08:55:28;10.77;;;7.18;;
33104;SDS011;19476;51.448;6.674;2022-08-18T09:00:54;9.82;;;6.28;;
33104;SDS011;19476;51.448;6.674;2022-08-18T09:04:06;9.45;;;6.50;;
33104;SDS011;19476;51.448;6.674;2022-08-18T09:12:11;10.20;;;6.68;;
33104;SDS011;19476;51.448;6.674;2022-08-18T09:22:03;8.43;;;5.55;;
33104;SDS011;19476;51.448;6.674;2022-08-18T09:24:21;8.93;;;5.15;;
33104;SDS011;19476;51.448;6.674;2022-08-18T09:37:12;6.97;;;5.30;;
33104;SDS011;19476;51.448;6.674;2022-08-18T09:40:31;10.10;;;5.57;;
33104;SDS011;19476;51.448;6.674;2022-08-18T09:43:07;6.20;;;4.85;;
33104;SDS011;19476;51.448;6.674;2022-08-18T09:45:57;5.60;;;4.07;;
33104;SDS011;19476;51.448;6.674;2022-08-18T09:48:25;6.50;;;4.18;;
33104;SDS011;19476;51.448;6.674;2022-08-18T09:56:13;7.78;;;4.70;;
33104;SDS011;19476;51.448;6.674;2022-08-18T09:58:55;5.75;;;4.07;;
33104;SDS011;19476;51.448;6.674;2022-08-18T10:06:41;6.40;;;4.40;;
33104;SDS011;19476;51.448;6.674;2022-08-18T10:14:40;7.03;;;4.72;;
33104;SDS011;19476;51.448;6.674;2022-08-18T10:22:59;5.43;;;3.45;;
33104;SDS011;19476;51.448;6.674;2022-08-18T10:25:30;6.63;;;4.60;;
33104;SDS011;19476;51.448;6.674;2022-08-18T10:28:06;6.93;;;4.70;;
33104;SDS011;19476;51.448;6.674;2022-08-18T10:33:00;6.25;;;4.75;;
33104;SDS011;19476;51.448;6.674;2022-08-18T10:40:39;6.15;;;4.65;;
33104;SDS011;19476;51.448;6.674;2022-08-18T10:43:18;11.57;;;5.70;;
33104;SDS011;19476;51.448;6.674;2022-08-18T10:45:54;6.38;;;4.95;;
33104;SDS011;19476;51.448;6.674;2022-08-18T10:50:53;8.13;;;4.53;;
33104;SDS011;19476;51.448;6.674;2022-08-18T10:53:44;6.65;;;3.70;;
33104;SDS011;19476;51.448;6.674;2022-08-18T10:56:28;5.97;;;3.35;;
33104;SDS011;19476;51.448;6.674;2022-08-18T11:04:30;4.72;;;3.35;;
33104;SDS011;19476;51.448;6.674;2022-08-18T11:07:16;5.40;;;3.20;;
33104;SDS011;19476;51.448;6.674;2022-08-18T11:09:48;5.80;;;3.58;;
33104;SDS011;19476;51.448;6.674;2022-08-18T11:15:10;4.85;;;3.17;;
33104;SDS011;19476;51.448;6.674;2022-08-18T11:17:46;4.60;;;3.30;;
33104;SDS011;19476;51.448;6.674;2022-08-18T11:20:27;3.90;;;2.97;;
33104;SDS011;19476;51.448;6.674;2022-08-18T11:22:57;3.80;;;2.65;;
33104;SDS011;19476;51.448;6.674;2022-08-18T11:25:29;6.15;;;4.07;;
33104;SDS011;19476;51.448;6.674;2022-08-18T11:27:57;4.45;;;3.40;;
33104;SDS011;19476;51.448;6.674;2022-08-18T11:30:26;4.80;;;3.53;;
33104;SDS011;19476;51.448;6.674;2022-08-18T11:32:58;4.10;;;2.92;;
33104;SDS011;19476;51.448;6.674;2022-08-18T11:35:43;6.00;;;3.33;;
33104;SDS011;19476;51.448;6.674;2022-08-18T11:38:15;5.93;;;3.20;;
33104;SDS011;19476;51.448;6.674;2022-08-18T11:40:44;4.18;;;3.00;;
33104;SDS011;19476;51.448;6.674;2022-08-18T11:43:28;4.72;;;3.25;;
33104;SDS011;19476;51.448;6.674;2022-08-18T11:45:58;5.07;;;3.33;;
33104;SDS011;19476;51.448;6.674;2022-08-18T12:09:22;3.92;;;2.70;;
33104;SDS011;19476;51.448;6.674;2022-08-18T12:11:56;5.65;;;2.70;;
33104;SDS011;19476;51.448;6.674;2022-08-18T12:14:27;2.85;;;2.28;;
33104;SDS011;19476;51.448;6.674;2022-08-18T12:16:55;3.83;;;2.60;;
33104;SDS011;19476;51.448;6.674;2022-08-18T12:19:22;3.72;;;2.58;;
33104;SDS011;19476;51.448;6.674;2022-08-18T12:21:53;4.40;;;2.72;;
33104;SDS011;19476;51.448;6.674;2022-08-18T12:24:32;3.13;;;2.70;;
33104;SDS011;19476;51.448;6.674;2022-08-18T12:26:58;2.72;;;2.45;;
33104;SDS011;19476;51.448;6.674;2022-08-18T12:29:25;4.40;;;2.80;;
33104;SDS011;19476;51.448;6.674;2022-08-18T12:31:52;4.18;;;2.33;;
33104;SDS011;19476;51.448;6.674;2022-08-18T12:34:20;6.05;;;3.15;;
33104;SDS011;19476;51.448;6.674;2022-08-18T12:36:52;6.82;;;2.95;;
33104;SDS011;19476;51.448;6.674;2022-08-18T12:39:20;3.65;;;2.65;;
33104;SDS011;19476;51.448;6.674;2022-08-18T12:41:46;3.45;;;2.67;;
33104;SDS011;19476;51.448;6.674;2022-08-18T12:44:12;3.47;;;2.78;;
33104;SDS011;19476;51.448;6.674;2022-08-18T12:46:39;5.05;;;2.70;;
33104;SDS011;19476;51.448;6.674;2022-08-18T12:49:07;3.63;;;2.70;;
33104;SDS011;19476;51.448;6.674;2022-08-18T12:51:40;4.32;;;3.00;;
33104;SDS011;19476;51.448;6.674;2022-08-18T12:54:06;4.72;;;2.60;;
33104;SDS011;19476;51.448;6.674;2022-08-18T12:56:34;4.32;;;2.97;;
33104;SDS011;19476;51.448;6.674;2022-08-18T12:59:02;5.95;;;3.10;;
33104;SDS011;19476;51.448;6.674;2022-08-18T13:03:56;4.32;;;2.97;;
33104;SDS011;19476;51.448;6.674;2022-08-18T13:06:23;4.25;;;3.22;;
33104;SDS011;19476;51.448;6.674;2022-08-18T13:08:50;4.90;;;3.55;;
33104;SDS011;19476;51.448;6.674;2022-08-18T13:11:17;6.28;;;4.28;;
33104;SDS011;19476;51.448;6.674;2022-08-18T13:13:43;5.80;;;4.00;;
33104;SDS011;19476;51.448;6.674;2022-08-18T13:16:10;4.93;;;3.70;;
33104;SDS011;19476;51.448;6.674;2022-08-18T13:18:37;6.32;;;3.60;;
33104;SDS011;19476;51.448;6.674;2022-08-18T13:21:07;4.85;;;3.08;;
33104;SDS011;19476;51.448;6.674;2022-08-18T13:23:34;5.20;;;3.70;;
33104;SDS011;19476;51.448;6.674;2022-08-18T13:26:01;4.65;;;3.42;;
33104;SDS011;19476;51.448;6.674;2022-08-18T13:28:29;4.65;;;3.10;;
33104;SDS011;19476;51.448;6.674;2022-08-18T13:30:56;4.82;;;3.25;;
33104;SDS011;19476;51.448;6.674;2022-08-18T13:33:22;7.88;;;4.10;;
33104;SDS011;19476;51.448;6.674;2022-08-18T13:35:49;11.38;;;10.30;;
33104;SDS011;19476;51.448;6.674;2022-08-18T13:38:16;6.82;;;5.57;;
33104;SDS011;19476;51.448;6.674;2022-08-18T13:40:51;6.05;;;4.55;;
33104;SDS011;19476;51.448;6.674;2022-08-18T13:43:19;5.00;;;3.75;;
33104;SDS011;19476;51.448;6.674;2022-08-18T13:45:50;6.07;;;3.55;;
33104;SDS011;19476;51.448;6.674;2022-08-18T13:48:16;5.15;;;3.78;;
33104;SDS011;19476;51.448;6.674;2022-08-18T13:50:43;4.53;;;3.72;;
33104;SDS011;19476;51.448;6.674;2022-08-18T13:53:11;6.97;;;4.22;;
33104;SDS011;19476;51.448;6.674;2022-08-18T13:55:40;4.75;;;3.50;;
33104;SDS011;19476;51.448;6.674;2022-08-18T13:58:06;4.07;;;3.20;;
33104;SDS011;19476;51.448;6.674;2022-08-18T14:00:33;3.75;;;3.20;;
33104;SDS011;19476;51.448;6.674;2022-08-18T14:03:00;2.97;;;2.63;;
33104;SDS011;19476;51.448;6.674;2022-08-18T14:05:26;6.15;;;2.90;;
33104;SDS011;19476;51.448;6.674;2022-08-18T14:07:52;4.00;;;2.90;;
33104;SDS011;19476;51.448;6.674;2022-08-18T14:10:18;4.20;;;3.05;;
33104;SDS011;19476;51.448;6.674;2022-08-18T14:12:45;4.20;;;2.83;;
33104;SDS011;19476;51.448;6.674;2022-08-18T14:15:12;2.75;;;2.25;;
33104;SDS011;19476;51.448;6.674;2022-08-18T14:17:39;4.95;;;2.60;;
33104;SDS011;19476;51.448;6.674;2022-08-18T14:20:06;3.47;;;2.70;;
33104;SDS011;19476;51.448;6.674;2022-08-18T14:22:53;2.92;;;2.53;;
33104;SDS011;19476;51.448;6.674;2022-08-18T14:25:38;3.83;;;2.88;;
33104;SDS011;19476;51.448;6.674;2022-08-18T14:28:23;5.80;;;3.10;;
33104;SDS011;19476;51.448;6.674;2022-08-18T14:30:50;3.28;;;2.88;;
33104;SDS011;19476;51.448;6.674;2022-08-18T14:33:16;4.97;;;3.13;;
33104;SDS011;19476;51.448;6.674;2022-08-18T14:35:45;3.13;;;2.78;;
33104;SDS011;19476;51.448;6.674;2022-08-18T14:38:12;3.78;;;2.63;;
33104;SDS011;19476;51.448;6.674;2022-08-18T14:40:41;3.63;;;2.90;;
33104;SDS011;19476;51.448;6.674;2022-08-18T14:43:11;5.35;;;2.83;;
33104;SDS011;19476;51.448;6.674;2022-08-18T14:45:38;4.10;;;2.75;;
33104;SDS011;19476;51.448;6.674;2022-08-18T14:48:11;3.42;;;2.78;;
33104;SDS011;19476;51.448;6.674;2022-08-18T14:50:38;3.22;;;2.63;;
33104;SDS011;19476;51.448;6.674;2022-08-18T14:53:05;5.63;;;3.08;;
33104;SDS011;19476;51.448;6.674;2022-08-18T14:55:32;2.92;;;2.63;;
33104;SDS011;19476;51.448;6.674;2022-08-18T14:57:58;3.50;;;3.05;;
33104;SDS011;19476;51.448;6.674;2022-08-18T15:00:25;3.88;;;2.90;;
33104;SDS011;19476;51.448;6.674;2022-08-18T15:02:52;3.72;;;2.97;;
33104;SDS011;19476;51.448;6.674;2022-08-18T15:05:18;3.13;;;2.83;;
33104;SDS011;19476;51.448;6.674;2022-08-18T15:07:44;4.65;;;2.97;;
33104;SDS011;19476;51.448;6.674;2022-08-18T15:10:11;4.45;;;2.90;;
33104;SDS011;19476;51.448;6.674;2022-08-18T15:12:39;3.95;;;2.63;;
33104;SDS011;19476;51.448;6.674;2022-08-18T15:15:06;3.65;;;2.55;;
33104;SDS011;19476;51.448;6.674;2022-08-18T15:17:36;3.65;;;3.00;;
33104;SDS011;19476;51.448;6.674;2022-08-18T15:20:04;4.32;;;2.95;;
33104;SDS011;19476;51.448;6.674;2022-08-18T15:22:31;3.33;;;2.83;;
33104;SDS011;19476;51.448;6.674;2022-08-18T15:28:04;3.47;;;2.25;;
33104;SDS011;19476;51.448;6.674;2022-08-18T15:30:31;3.15;;;2.30;;
33104;SDS011;19476;51.448;6.674;2022-08-18T15:32:57;3.33;;;2.75;;
33104;SDS011;19476;51.448;6.674;2022-08-18T15:35:23;3.83;;;2.70;;
33104;SDS011;19476;51.448;6.674;2022-08-18T15:37:50;3.63;;;2.65;;
33104;SDS011;19476;51.448;6.674;2022-08-18T15:40:18;3.53;;;2.90;;
33104;SDS011;19476;51.448;6.674;2022-08-18T15:42:47;3.22;;;2.90;;
33104;SDS011;19476;51.448;6.674;2022-08-18T15:45:16;4.35;;;3.00;;
33104;SDS011;19476;51.448;6.674;2022-08-18T15:47:49;4.85;;;2.83;;
33104;SDS011;19476;51.448;6.674;2022-08-18T15:50:15;2.90;;;2.30;;
33104;SDS011;19476;51.448;6.674;2022-08-18T15:52:49;2.92;;;2.38;;
33104;SDS011;19476;51.448;6.674;2022-08-18T15:55:19;3.92;;;3.05;;
33104;SDS011;19476;51.448;6.674;2022-08-18T15:57:46;3.35;;;2.97;;
33104;SDS011;19476;51.448;6.674;2022-08-18T16:00:14;3.80;;;2.72;;
33104;SDS011;19476;51.448;6.674;2022-08-18T16:02:47;4.03;;;2.75;;
33104;SDS011;19476;51.448;6.674;2022-08-18T16:05:15;4.57;;;2.80;;
33104;SDS011;19476;51.448;6.674;2022-08-18T16:07:42;3.83;;;3.13;;
33104;SDS011;19476;51.448;6.674;2022-08-18T16:10:10;3.58;;;2.75;;
33104;SDS011;19476;51.448;6.674;2022-08-18T16:12:36;4.93;;;3.17;;
33104;SDS011;19476;51.448;6.674;2022-08-18T16:15:04;3.17;;;2.58;;
33104;SDS011;19476;51.448;6.674;2022-08-18T16:17:31;3.50;;;2.75;;
33104;SDS011;19476;51.448;6.674;2022-08-18T16:19:58;3.35;;;2.72;;
33104;SDS011;19476;51.448;6.674;2022-08-18T16:22:27;3.22;;;2.50;;
33104;SDS011;19476;51.448;6.674;2022-08-18T16:24:56;4.18;;;2.70;;
33104;SDS011;19476;51.448;6.674;2022-08-18T16:27:22;3.72;;;2.40;;
33104;SDS011;19476;51.448;6.674;2022-08-18T16:29:49;3.67;;;2.40;;
33104;SDS011;19476;51.448;6.674;2022-08-18T16:32:15;3.55;;;2.60;;
33104;SDS011;19476;51.448;6.674;2022-08-18T16:34:41;4.22;;;2.97;;
33104;SDS011;19476;51.448;6.674;2022-08-18T16:37:10;3.92;;;2.63;;
33104;SDS011;19476;51.448;6.674;2022-08-18T16:39:35;3.83;;;2.78;;
33104;SDS011;19476;51.448;6.674;2022-08-18T16:42:01;3.72;;;3.03;;
33104;SDS011;19476;51.448;6.674;2022-08-18T16:44:29;3.85;;;2.67;;
33104;SDS011;19476;51.448;6.674;2022-08-18T16:46:57;3.25;;;2.47;;
33104;SDS011;19476;51.448;6.674;2022-08-18T16:49:26;3.58;;;2.47;;
33104;SDS011;19476;51.448;6.674;2022-08-18T16:51:53;3.58;;;3.00;;
33104;SDS011;19476;51.448;6.674;2022-08-18T16:54:19;3.40;;;2.67;;
33104;SDS011;19476;51.448;6.674;2022-08-18T16:56:45;4.22;;;2.92;;
33104;SDS011;19476;51.448;6.674;2022-08-18T16:59:11;3.67;;;2.80;;
33104;SDS011;19476;51.448;6.674;2022-08-18T17:01:55;3.72;;;2.90;;
33104;SDS011;19476;51.448;6.674;2022-08-18T17:04:39;3.05;;;2.53;;
33104;SDS011;19476;51.448;6.674;2022-08-18T17:07:05;3.42;;;2.92;;
33104;SDS011;19476;51.448;6.674;2022-08-18T17:09:32;3.47;;;3.05;;
33104;SDS011;19476;51.448;6.674;2022-08-18T17:11:59;4.30;;;2.88;;
33104;SDS011;19476;51.448;6.674;2022-08-18T17:14:28;5.57;;;3.20;;
33104;SDS011;19476;51.448;6.674;2022-08-18T17:16:55;4.00;;;2.85;;
33104;SDS011;19476;51.448;6.674;2022-08-18T17:19:23;3.22;;;2.58;;
33104;SDS011;19476;51.448;6.674;2022-08-18T17:24:17;3.38;;;2.40;;
33104;SDS011;19476;51.448;6.674;2022-08-18T17:32:18;2.97;;;2.67;;
33104;SDS011;19476;51.448;6.674;2022-08-18T17:34:59;3.78;;;3.05;;
33104;SDS011;19476;51.448;6.674;2022-08-18T17:37:33;5.07;;;2.85;;
33104;SDS011;19476;51.448;6.674;2022-08-18T17:40:06;4.65;;;3.25;;
33104;SDS011;19476;51.448;6.674;2022-08-18T17:42:37;3.53;;;3.10;;
33104;SDS011;19476;51.448;6.674;2022-08-18T17:45:05;4.65;;;3.30;;